Flight Track Log - Related Links

Times and Time Zones

All times are in EDT time to prevent confusion due to time zone crossing. See the N31JN flight status page for this flight to view local times or setup timezone preferences in your user account.

Time Position Orientation Groundspeed Altitude Reporting Facility
EDT Latitude Longitude Course Direction KTS MPH feet Rate Location/Type
Sat 11:22:54 AM 26.8578 -77.5992 299° West 230 265 8,600  Level Miami Center
Sat 11:23:54 AM 26.8867 -77.6483 303° West 197 227 9,900 1,450 Climbing Miami Center
Sat 11:24:54 AM 26.9156 -77.6928 306° West 180 207 11,500 1,350 Climbing Miami Center
Sat 11:25:54 AM 26.9403 -77.7467 297° West 180 207 12,600 700 Climbing Miami Center
Sat 11:26:54 AM 26.9714 -77.7981 304° West 191 220 12,900 600 Climbing Miami Center
Sat 11:27:00 AM 26.8947 -77.6656 303° West  Level FlightAware Approximate
Sat 11:27:54 AM 27.0003 -77.8472 303° West 202 232 13,800  Level Miami Center
Sat 11:28:54 AM 27.0333 -77.9036 303° West 208 239 13,900 50 Climbing Miami Center
Sat 11:29:54 AM 27.0683 -77.9692 301° West 226 260 13,900  Level Miami Center
Sat 11:30:54 AM 27.1056 -78.0325 303° West 241 277 13,900  Level Miami Center
Sat 11:31:54 AM 27.1425 -78.1078 299° West 255 293 13,900  Level Miami Center
Sat 11:32:54 AM 27.1836 -78.1711 306° West 255 293 13,900  Level Miami Center
Sat 11:33:54 AM 27.2186 -78.2439 298° West 260 299 13,900  Level Miami Center
Sat 11:34:54 AM 27.2408 -78.3144 290° West 260 299 13,900  Level Miami Center
Sat 11:35:54 AM 27.2525 -78.4033 278° West 252 290 13,900  Level Miami Center
Sat 11:36:54 AM 27.2600 -78.4758 277° West 252 290 13,900  Level Miami Center
Sat 11:37:54 AM 27.2842 -78.5439 292° West 240 276 13,900  Level Miami Center
Sat 11:38:54 AM 27.3317 -78.6031 312° West 240 276 13,900  Level Miami Center
Sat 11:39:54 AM 27.3789 -78.6669 310° West 250 288 13,900  Level Miami Center
Sat 11:40:54 AM 27.4242 -78.7214 313° West 269 310 13,900  Level Miami Center
Sat 11:41:54 AM 27.4714 -78.7878 309° West 269 310 13,900  Level Miami Center
Sat 11:42:54 AM 27.5247 -78.8589 310° West 269 310 13,900  Level Miami Center
Sat 11:43:54 AM 27.5614 -78.9253 302° West 269 310 13,900  Level Miami Center
Sat 11:44:54 AM 27.5872 -79.0053 290° West 264 304 13,900  Level Miami Center
Sat 11:45:54 AM 27.6092 -79.0761 289° West 264 304 13,900  Level Miami Center
Sat 11:46:54 AM 27.6369 -79.1633 290° West 269 310 13,900 -100 Level Miami Center
Sat 11:47:54 AM 27.6586 -79.2411 287° West 269 310 13,700 -400 Descending Miami Center
Sat 11:48:54 AM 27.6867 -79.3214 292° West 269 310 13,100 -600 Descending Miami Center
Sat 11:49:54 AM 27.7106 -79.3900 291° West 263 303 12,500 -600 Descending Miami Center
Sat 11:50:54 AM 27.7342 -79.4681 289° West 263 303 11,900 -650 Descending Miami Center
Sat 11:51:54 AM 27.7597 -79.5508 289° West 256 295 11,200 -700 Descending Miami Center
Sat 11:52:54 AM 27.7814 -79.6286 287° West 256 295 10,500 -600 Descending Miami Center
Sat 11:53:54 AM 27.8028 -79.7019 288° West 256 295 10,000 -250 Descending Miami Center
Sat 11:54:54 AM 27.8244 -79.7683 290° West 251 289 10,000  Level Miami Center
Sat 11:55:54 AM 27.8481 -79.8394 291° West 246 283 10,000 -350 Level Miami Center
Sat 11:56:54 AM 27.8672 -79.9219 285° West 246 283 9,300 -678 Descending Miami Center
Sat 11:58:51 AM 27.9000 -80.0667 284° West 233 268 8,000 -687 Descending Orlando TRACON
Sat 11:59:40 AM 27.9333 -80.1167 307° West 231 266 7,400 -678 Descending Orlando TRACON
Sat 12:00:46 PM 27.9500 -80.1833 286° West 235 270 6,700 -700 Descending Orlando TRACON
Sat 12:01:40 PM 27.9833 -80.2500 300° West 236 272 6,000 -842 Descending Orlando TRACON
Sat 12:02:40 PM 28.0000 -80.3167 286° West 237 273 5,100 -500 Descending Orlando TRACON
Sat 12:03:40 PM 28.0167 -80.3833 286° West 217 250 5,000 -333 Descending Orlando TRACON
Sat 12:04:46 PM 28.0167 -80.4667 270° West 212 244 4,400 -898 Descending Orlando TRACON
Sat 12:05:47 PM 28.0167 -80.5333 270° West 220 253 3,100 -1,279 Descending Orlando TRACON

Login

Don't have an account? Register now (free) for customized features, flight alerts, and more!